sensor_id;sensor_type;location;lat;lon;timestamp;pressure;altitude;pressure_sealevel;temperature;humidity
62293;BME280;48292;47.724;18.992;2022-12-13T04:35:28;96916.55;;;-5.42;100.0
62293;BME280;48292;47.724;18.992;2022-12-13T04:40:30;96916.55;;;-5.42;100.0
62293;BME280;48292;47.724;18.992;2022-12-13T04:45:32;96921.05;;;-5.58;100.0
62293;BME280;48292;47.724;18.992;2022-12-13T04:50:34;96921.05;;;-5.58;100.0
62293;BME280;48292;47.724;18.992;2022-12-13T04:55:36;96919.2;;;-5.57;100.0
62293;BME280;48292;47.724;18.992;2022-12-13T05:00:38;96919.2;;;-5.57;100.0
62293;BME280;48292;47.724;18.992;2022-12-13T05:05:44;96916.05;;;-5.57;100.0
62293;BME280;48292;47.724;18.992;2022-12-13T05:10:46;96916.05;;;-5.57;100.0
62293;BME280;48292;47.724;18.992;2022-12-13T05:15:53;96918.28;;;-5.83;100.0
62293;BME280;48292;47.724;18.992;2022-12-13T05:21:00;96922.55;;;-5.82;100.0
62293;BME280;48292;47.724;18.992;2022-12-13T05:26:02;96922.55;;;-5.82;100.0
62293;BME280;48292;47.724;18.992;2022-12-13T05:31:05;96915.45;;;-5.79;100.0
62293;BME280;48292;47.724;18.992;2022-12-13T05:36:11;96915.45;;;-5.79;100.0
62293;BME280;48292;47.724;18.992;2022-12-13T05:41:14;96923.08;;;-6.08;100.0
62293;BME280;48292;47.724;18.992;2022-12-13T05:46:17;96923.08;;;-6.08;100.0
62293;BME280;48292;47.724;18.992;2022-12-13T05:51:19;96903.66;;;-5.99;100.0
62293;BME280;48292;47.724;18.992;2022-12-13T05:56:21;96903.66;;;-5.99;100.0
62293;BME280;48292;47.724;18.992;2022-12-13T06:01:24;96913.31;;;-6.02;100.0
62293;BME280;48292;47.724;18.992;2022-12-13T06:06:26;96926.25;;;-6.13;100.0
62293;BME280;48292;47.724;18.992;2022-12-13T06:11:28;96926.25;;;-6.13;100.0
62293;BME280;48292;47.724;18.992;2022-12-13T06:16:33;96943.93;;;-6.73;100.0
62293;BME280;48292;47.724;18.992;2022-12-13T06:21:35;96943.93;;;-6.73;100.0
62293;BME280;48292;47.724;18.992;2022-12-13T06:26:41;96941.78;;;-6.74;100.0
62293;BME280;48292;47.724;18.992;2022-12-13T06:31:47;96941.78;;;-6.74;100.0
62293;BME280;48292;47.724;18.992;2022-12-13T06:36:48;96947.16;;;-6.41;100.0
62293;BME280;48292;47.724;18.992;2022-12-13T06:41:50;96947.16;;;-6.41;100.0
62293;BME280;48292;47.724;18.992;2022-12-13T06:46:52;96957.98;;;-6.66;100.0
62293;BME280;48292;47.724;18.992;2022-12-13T06:51:58;96957.98;;;-6.66;100.0
62293;BME280;48292;47.724;18.992;2022-12-13T06:56:59;96960.31;;;-6.79;100.0
62293;BME280;48292;47.724;18.992;2022-12-13T07:02:01;96977.94;;;-7.19;100.0
62293;BME280;48292;47.724;18.992;2022-12-13T07:07:05;96977.94;;;-7.19;100.0
62293;BME280;48292;47.724;18.992;2022-12-13T07:12:07;96981.28;;;-6.94;100.0
62293;BME280;48292;47.724;18.992;2022-12-13T07:17:09;96981.28;;;-6.94;100.0
62293;BME280;48292;47.724;18.992;2022-12-13T07:22:11;96988.66;;;-6.87;100.0
62293;BME280;48292;47.724;18.992;2022-12-13T07:27:12;96988.66;;;-6.87;100.0
62293;BME280;48292;47.724;18.992;2022-12-13T07:32:14;96993.69;;;-6.8;100.0
62293;BME280;48292;47.724;18.992;2022-12-13T07:37:16;96993.69;;;-6.8;100.0
62293;BME280;48292;47.724;18.992;2022-12-13T07:42:22;97010.58;;;-6.77;100.0
62293;BME280;48292;47.724;18.992;2022-12-13T07:47:27;97010.02;;;-6.79;100.0
62293;BME280;48292;47.724;18.992;2022-12-13T07:52:29;97010.02;;;-6.79;100.0
62293;BME280;48292;47.724;18.992;2022-12-13T07:57:30;97015.11;;;-6.67;100.0
62293;BME280;48292;47.724;18.992;2022-12-13T08:02:32;97015.11;;;-6.67;100.0
62293;BME280;48292;47.724;18.992;2022-12-13T08:07:34;97016.19;;;-6.51;100.0
62293;BME280;48292;47.724;18.992;2022-12-13T08:12:36;97016.19;;;-6.51;100.0
62293;BME280;48292;47.724;18.992;2022-12-13T08:17:37;97011.69;;;-6.5;100.0
62293;BME280;48292;47.724;18.992;2022-12-13T08:22:41;97011.69;;;-6.5;100.0
62293;BME280;48292;47.724;18.992;2022-12-13T08:27:47;97021.11;;;-6.25;100.0
62293;BME280;48292;47.724;18.992;2022-12-13T08:32:49;97021.11;;;-6.25;100.0
62293;BME280;48292;47.724;18.992;2022-12-13T08:37:51;97024.99;;;-6.03;100.0
62293;BME280;48292;47.724;18.992;2022-12-13T08:42:53;97039.94;;;-5.94;100.0
62293;BME280;48292;47.724;18.992;2022-12-13T08:47:56;97039.94;;;-5.94;100.0
62293;BME280;48292;47.724;18.992;2022-12-13T08:52:58;97038.66;;;-5.35;100.0
62293;BME280;48292;47.724;18.992;2022-12-13T08:58:02;97038.66;;;-5.35;100.0
62293;BME280;48292;47.724;18.992;2022-12-13T09:03:04;97028.14;;;-5.19;100.0
62293;BME280;48292;47.724;18.992;2022-12-13T09:08:11;97028.14;;;-5.19;100.0
62293;BME280;48292;47.724;18.992;2022-12-13T09:13:17;97033.38;;;-5.01;100.0
62293;BME280;48292;47.724;18.992;2022-12-13T09:18:22;97033.38;;;-5.01;100.0
62293;BME280;48292;47.724;18.992;2022-12-13T09:23:29;97023.48;;;-4.69;100.0
62293;BME280;48292;47.724;18.992;2022-12-13T09:28:36;97024.52;;;-4.26;100.0
62293;BME280;48292;47.724;18.992;2022-12-13T09:33:38;97024.52;;;-4.26;100.0
62293;BME280;48292;47.724;18.992;2022-12-13T09:38:44;97017.8;;;-3.72;97.07
62293;BME280;48292;47.724;18.992;2022-12-13T09:43:47;97017.8;;;-3.72;97.07
62293;BME280;48292;47.724;18.992;2022-12-13T09:48:52;97022.66;;;-3.46;94.26
62293;BME280;48292;47.724;18.992;2022-12-13T09:53:58;97022.66;;;-3.46;94.26
62293;BME280;48292;47.724;18.992;2022-12-13T09:59:01;97023.5;;;-2.88;91.12
62293;BME280;48292;47.724;18.992;2022-12-13T10:04:06;97023.5;;;-2.88;91.12
62293;BME280;48292;47.724;18.992;2022-12-13T10:09:10;97023.39;;;-3.12;85.76
62293;BME280;48292;47.724;18.992;2022-12-13T10:14:14;97023.39;;;-3.12;85.76
62293;BME280;48292;47.724;18.992;2022-12-13T10:19:20;97001.33;;;-3.16;85.93
62293;BME280;48292;47.724;18.992;2022-12-13T10:24:28;97002.39;;;-2.89;86.46
62293;BME280;48292;47.724;18.992;2022-12-13T10:29:35;97002.39;;;-2.89;86.46
62293;BME280;48292;47.724;18.992;2022-12-13T10:34:40;97000.37;;;-2.84;85.99
62293;BME280;48292;47.724;18.992;2022-12-13T10:39:42;97000.37;;;-2.84;85.99
62293;BME280;48292;47.724;18.992;2022-12-13T10:44:45;96994.66;;;-2.97;82.75
62293;BME280;48292;47.724;18.992;2022-12-13T10:49:48;96994.66;;;-2.97;82.75
62293;BME280;48292;47.724;18.992;2022-12-13T10:54:55;96983.59;;;-2.7;85.45
62293;BME280;48292;47.724;18.992;2022-12-13T11:05:20;96974.69;;;-2.58;85.02
62293;BME280;48292;47.724;18.992;2022-12-13T11:10:25;96961.86;;;-2.37;86.11
62293;BME280;48292;47.724;18.992;2022-12-13T11:15:29;96961.86;;;-2.37;86.11
62293;BME280;48292;47.724;18.992;2022-12-13T11:20:33;96961.73;;;-2.36;83.9
62293;BME280;48292;47.724;18.992;2022-12-13T11:25:38;96961.73;;;-2.36;83.9
62293;BME280;48292;47.724;18.992;2022-12-13T11:30:41;96955.67;;;-2.34;83.99
62293;BME280;48292;47.724;18.992;2022-12-13T11:35:52;96955.67;;;-2.34;83.99
62293;BME280;48292;47.724;18.992;2022-12-13T11:40:58;96951.43;;;-2.24;83.87
62293;BME280;48292;47.724;18.992;2022-12-13T11:46:02;96951.43;;;-2.24;83.87
62293;BME280;48292;47.724;18.992;2022-12-13T11:51:07;96946.93;;;-2.2;84.06
62293;BME280;48292;47.724;18.992;2022-12-13T11:56:11;96939.72;;;-1.99;83.92
62293;BME280;48292;47.724;18.992;2022-12-13T12:01:16;96939.72;;;-1.99;83.92
62293;BME280;48292;47.724;18.992;2022-12-13T12:06:20;96943.64;;;-1.76;82.97
62293;BME280;48292;47.724;18.992;2022-12-13T12:11:25;96943.64;;;-1.76;82.97
62293;BME280;48292;47.724;18.992;2022-12-13T12:16:30;96952.62;;;-1.72;83.08
62293;BME280;48292;47.724;18.992;2022-12-13T12:21:35;96952.62;;;-1.72;83.08
62293;BME280;48292;47.724;18.992;2022-12-13T12:26:43;96954.05;;;-1.82;77.35
62293;BME280;48292;47.724;18.992;2022-12-13T12:31:49;96954.05;;;-1.82;77.35
62293;BME280;48292;47.724;18.992;2022-12-13T12:36:55;96939.88;;;-1.75;80.01
62293;BME280;48292;47.724;18.992;2022-12-13T12:42:09;96938.16;;;-1.61;78.21
62293;BME280;48292;47.724;18.992;2022-12-13T12:47:19;96938.16;;;-1.61;78.21
62293;BME280;48292;47.724;18.992;2022-12-13T12:52:25;96935.41;;;-1.73;75.97
62293;BME280;48292;47.724;18.992;2022-12-13T12:57:33;96935.41;;;-1.73;75.97
62293;BME280;48292;47.724;18.992;2022-12-13T13:02:37;96939.97;;;-1.62;75.19
62293;BME280;48292;47.724;18.992;2022-12-13T13:07:43;96939.97;;;-1.62;75.19
62293;BME280;48292;47.724;18.992;2022-12-13T13:12:51;96952.3;;;-1.51;77.12
62293;BME280;48292;47.724;18.992;2022-12-13T13:17:57;96952.3;;;-1.51;77.12
62293;BME280;48292;47.724;18.992;2022-12-13T13:22:59;96959.33;;;-1.59;76.6
62293;BME280;48292;47.724;18.992;2022-12-13T13:28:10;96959.33;;;-1.59;76.6
62293;BME280;48292;47.724;18.992;2022-12-13T13:38:27;96973.44;;;-1.67;79.0
62293;BME280;48292;47.724;18.992;2022-12-13T13:43:29;96973.44;;;-1.67;79.0
62293;BME280;48292;47.724;18.992;2022-12-13T13:48:40;96977.06;;;-1.32;83.64
62293;BME280;48292;47.724;18.992;2022-12-13T13:53:50;96977.06;;;-1.32;83.64
62293;BME280;48292;47.724;18.992;2022-12-13T14:04:08;96973.58;;;-1.22;82.35
62293;BME280;48292;47.724;18.992;2022-12-13T14:09:25;96970.61;;;-1.48;81.02
62293;BME280;48292;47.724;18.992;2022-12-13T14:24:54;96993.34;;;-1.94;82.81
62293;BME280;48292;47.724;18.992;2022-12-13T14:29:56;96993.34;;;-1.94;82.81
62293;BME280;48292;47.724;18.992;2022-12-13T14:35:00;96992.53;;;-2.88;84.03
62293;BME280;48292;47.724;18.992;2022-12-13T14:45:12;96994.61;;;-3.36;89.01
62293;BME280;48292;47.724;18.992;2022-12-13T14:50:15;96994.61;;;-3.36;89.01
62293;BME280;48292;47.724;18.992;2022-12-13T14:55:21;96989.43;;;-3.81;91.6
62293;BME280;48292;47.724;18.992;2022-12-13T15:00:26;96993.42;;;-4.29;94.42
62293;BME280;48292;47.724;18.992;2022-12-13T15:05:30;96993.42;;;-4.29;94.42
62293;BME280;48292;47.724;18.992;2022-12-13T15:10:36;97007.48;;;-4.7;95.61
62293;BME280;48292;47.724;18.992;2022-12-13T15:15:39;97007.48;;;-4.7;95.61
62293;BME280;48292;47.724;18.992;2022-12-13T15:20:40;97009.26;;;-4.92;93.7
62293;BME280;48292;47.724;18.992;2022-12-13T15:25:43;97009.26;;;-4.92;93.7
62293;BME280;48292;47.724;18.992;2022-12-13T15:30:45;97014.02;;;-5.25;96.08
62293;BME280;48292;47.724;18.992;2022-12-13T15:35:48;97014.02;;;-5.25;96.08
62293;BME280;48292;47.724;18.992;2022-12-13T15:40:50;97033.0;;;-5.44;98.13
62293;BME280;48292;47.724;18.992;2022-12-13T15:45:52;97033.0;;;-5.44;98.13
62293;BME280;48292;47.724;18.992;2022-12-13T16:06:22;97043.31;;;-5.69;100.0
62293;BME280;48292;47.724;18.992;2022-12-13T16:11:26;97043.31;;;-5.69;100.0
62293;BME280;48292;47.724;18.992;2022-12-13T16:16:29;97051.2;;;-5.91;100.0
62293;BME280;48292;47.724;18.992;2022-12-13T16:21:31;97051.2;;;-5.91;100.0
62293;BME280;48292;47.724;18.992;2022-12-13T16:26:33;97051.2;;;-5.91;100.0
62293;BME280;48292;47.724;18.992;2022-12-13T16:31:34;97051.2;;;-5.91;100.0
62293;BME280;48292;47.724;18.992;2022-12-13T16:36:38;97051.2;;;-5.91;100.0
62293;BME280;48292;47.724;18.992;2022-12-13T16:41:41;97051.2;;;-5.91;100.0
62293;BME280;48292;47.724;18.992;2022-12-13T16:46:44;97051.2;;;-5.91;100.0
62293;BME280;48292;47.724;18.992;2022-12-13T16:51:50;97051.2;;;-5.91;100.0
62293;BME280;48292;47.724;18.992;2022-12-13T16:56:52;97051.2;;;-5.91;100.0
62293;BME280;48292;47.724;18.992;2022-12-13T17:01:57;97051.2;;;-5.91;100.0
62293;BME280;48292;47.724;18.992;2022-12-13T17:07:00;97051.2;;;-5.91;100.0
62293;BME280;48292;47.724;18.992;2022-12-13T17:12:03;97051.2;;;-5.91;100.0
62293;BME280;48292;47.724;18.992;2022-12-13T17:17:06;97050.84;;;-7.18;100.0
62293;BME280;48292;47.724;18.992;2022-12-13T17:22:13;97050.84;;;-7.18;100.0
62293;BME280;48292;47.724;18.992;2022-12-13T17:27:16;97046.87;;;-7.12;100.0
62293;BME280;48292;47.724;18.992;2022-12-13T17:32:18;97046.87;;;-7.12;100.0
62293;BME280;48292;47.724;18.992;2022-12-13T17:37:21;97058.78;;;-7.12;100.0
62293;BME280;48292;47.724;18.992;2022-12-13T17:42:26;97058.78;;;-7.12;100.0
62293;BME280;48292;47.724;18.992;2022-12-13T17:47:30;97072.0;;;-7.13;100.0
62293;BME280;48292;47.724;18.992;2022-12-13T17:52:32;97072.0;;;-7.13;100.0
62293;BME280;48292;47.724;18.992;2022-12-13T17:57:35;97052.18;;;-6.53;100.0
62293;BME280;48292;47.724;18.992;2022-12-13T18:02:37;97047.8;;;-6.61;100.0
62293;BME280;48292;47.724;18.992;2022-12-13T18:07:40;97047.8;;;-6.61;100.0
62293;BME280;48292;47.724;18.992;2022-12-13T18:12:47;97061.63;;;-7.11;100.0
62293;BME280;48292;47.724;18.992;2022-12-13T18:17:55;97061.63;;;-7.11;100.0
62293;BME280;48292;47.724;18.992;2022-12-13T18:23:01;97065.84;;;-7.41;100.0
62293;BME280;48292;47.724;18.992;2022-12-13T18:28:04;97065.84;;;-7.41;100.0
62293;BME280;48292;47.724;18.992;2022-12-13T18:33:11;97069.23;;;-7.23;100.0
62293;BME280;48292;47.724;18.992;2022-12-13T18:38:14;97069.23;;;-7.23;100.0
62293;BME280;48292;47.724;18.992;2022-12-13T18:43:18;97067.37;;;-7.09;100.0
62293;BME280;48292;47.724;18.992;2022-12-13T18:48:21;97067.37;;;-7.09;100.0
62293;BME280;48292;47.724;18.992;2022-12-13T18:53:27;97063.17;;;-7.64;100.0
62293;BME280;48292;47.724;18.992;2022-12-13T18:58:31;97062.52;;;-7.92;100.0
62293;BME280;48292;47.724;18.992;2022-12-13T19:03:36;97062.52;;;-7.92;100.0
62293;BME280;48292;47.724;18.992;2022-12-13T19:08:41;97057.85;;;-7.95;100.0
62293;BME280;48292;47.724;18.992;2022-12-13T19:13:45;97057.85;;;-7.95;100.0
62293;BME280;48292;47.724;18.992;2022-12-13T19:18:50;97063.4;;;-7.88;100.0
62293;BME280;48292;47.724;18.992;2022-12-13T19:23:56;97063.4;;;-7.88;100.0
62293;BME280;48292;47.724;18.992;2022-12-13T19:29:02;97058.69;;;-7.94;100.0
62293;BME280;48292;47.724;18.992;2022-12-13T19:34:08;97058.69;;;-7.94;100.0
62293;BME280;48292;47.724;18.992;2022-12-13T19:39:12;97063.36;;;-7.77;100.0
62293;BME280;48292;47.724;18.992;2022-12-13T19:44:16;97070.28;;;-7.86;100.0
62293;BME280;48292;47.724;18.992;2022-12-13T19:49:21;97070.28;;;-7.86;100.0
62293;BME280;48292;47.724;18.992;2022-12-13T19:54:25;97068.79;;;-7.99;100.0
62293;BME280;48292;47.724;18.992;2022-12-13T19:59:30;97068.79;;;-7.99;100.0
62293;BME280;48292;47.724;18.992;2022-12-13T20:04:33;97066.81;;;-8.15;100.0
62293;BME280;48292;47.724;18.992;2022-12-13T20:09:38;97066.81;;;-8.15;100.0
62293;BME280;48292;47.724;18.992;2022-12-13T20:14:42;97070.45;;;-8.36;100.0
62293;BME280;48292;47.724;18.992;2022-12-13T20:19:46;97070.45;;;-8.36;100.0
62293;BME280;48292;47.724;18.992;2022-12-13T20:24:51;97065.66;;;-8.33;100.0
62293;BME280;48292;47.724;18.992;2022-12-13T20:29:57;97063.53;;;-8.39;100.0
62293;BME280;48292;47.724;18.992;2022-12-13T20:35:03;97063.53;;;-8.39;100.0
62293;BME280;48292;47.724;18.992;2022-12-13T20:40:07;97074.92;;;-8.17;100.0
62293;BME280;48292;47.724;18.992;2022-12-13T20:45:13;97074.92;;;-8.17;100.0
62293;BME280;48292;47.724;18.992;2022-12-13T20:50:19;97073.83;;;-7.42;100.0
62293;BME280;48292;47.724;18.992;2022-12-13T20:55:24;97073.83;;;-7.42;100.0
62293;BME280;48292;47.724;18.992;2022-12-13T21:00:29;97078.23;;;-7.53;100.0
62293;BME280;48292;47.724;18.992;2022-12-13T21:05:32;97078.23;;;-7.53;100.0
62293;BME280;48292;47.724;18.992;2022-12-13T21:10:38;97070.47;;;-7.59;100.0
62293;BME280;48292;47.724;18.992;2022-12-13T21:15:42;97060.95;;;-7.95;100.0
62293;BME280;48292;47.724;18.992;2022-12-13T21:20:45;97060.95;;;-7.95;100.0
62293;BME280;48292;47.724;18.992;2022-12-13T21:25:50;97041.0;;;-8.03;100.0
62293;BME280;48292;47.724;18.992;2022-12-13T21:30:56;97041.0;;;-8.03;100.0
62293;BME280;48292;47.724;18.992;2022-12-13T21:41:04;97036.95;;;-8.25;100.0
62293;BME280;48292;47.724;18.992;2022-12-13T21:46:06;97031.78;;;-8.36;100.0
62293;BME280;48292;47.724;18.992;2022-12-13T21:51:09;97031.78;;;-8.36;100.0
62293;BME280;48292;47.724;18.992;2022-12-13T21:56:12;97031.78;;;-8.36;100.0
62293;BME280;48292;47.724;18.992;2022-12-13T22:01:15;97031.78;;;-8.36;100.0
62293;BME280;48292;47.724;18.992;2022-12-13T22:06:17;97031.78;;;-8.36;100.0
62293;BME280;48292;47.724;18.992;2022-12-13T22:11:19;97031.78;;;-8.36;100.0
62293;BME280;48292;47.724;18.992;2022-12-13T22:16:23;97031.78;;;-8.36;100.0
62293;BME280;48292;47.724;18.992;2022-12-13T22:21:25;97031.78;;;-8.36;100.0
62293;BME280;48292;47.724;18.992;2022-12-13T22:26:27;97031.78;;;-8.36;100.0
62293;BME280;48292;47.724;18.992;2022-12-13T22:31:28;97031.78;;;-8.36;100.0
62293;BME280;48292;47.724;18.992;2022-12-13T22:36:32;97031.78;;;-8.36;100.0
62293;BME280;48292;47.724;18.992;2022-12-13T22:41:34;97031.78;;;-8.36;100.0
